• Join FlightAware (Why Join?)
  • Login
  • US Flag 
02:54PM EDT


 

Airport Tracker/Info


-or-


 

Live Flight TrackerFlight Track Log ✈ N508QS ✈ 16-May-2013 ✈ KSJC - KMMU

Flight Track Log - Related Links

Times and Time Zones

All times are in EDT time to prevent confusion due to time zone crossing. See the N508QS flight status page for this flight to view local times or setup timezone preferences in your user account.

Time Position Orientation Groundspeed Altitude Reporting Facility
EDT Latitude Longitude Course Direction KTS MPH feet Rate Location/Type
12:24PM 37.3783 -121.9486 324° Northwest 187 215 1,400  Level Oakland Center
12:25PM 37.4167 -121.9833 324° Northwest 205 236 4,500 1,620 Climbing Northern Cal TRACON
12:28PM 37.3806 -121.8503 109° East 235 270 6,500 900 Climbing Oakland Center
12:29PM 37.3267 -121.8075 148° Southeast 244 281 7,500 1,560 Climbing Oakland Center
12:30PM 37.3253 -121.8711 268° West 217 250 9,700 2,340 Climbing Oakland Center
12:31PM 37.3947 -121.9097 336° Northwest 243 280 12,300 2,460 Climbing Oakland Center
12:32PM 37.4719 -121.9239 352° North 277 319 14,800 2,160 Climbing Oakland Center
12:33PM 37.5642 -121.9422 351° North 330 380 16,800 1,860 Climbing Oakland Center
12:34PM 37.6608 -121.8881 24° Northeast 389 448 18,600 1,740 Climbing Oakland Center
12:35PM 37.7272 -121.7592 57° Northeast 441 507 20,400 1,920 Climbing Oakland Center
12:36PM 37.7950 -121.6281 57° Northeast 446 513 22,600 2,280 Climbing Oakland Center
12:37PM 37.8697 -121.4822 57° Northeast 467 537 25,100 2,100 Climbing Oakland Center
12:38PM 37.9436 -121.3383 57° Northeast 485 558 26,900 1,740 Climbing Oakland Center
12:39PM 38.0194 -121.1875 57° Northeast 507 583 28,700 1,980 Climbing Oakland Center
12:40PM 38.1142 -121.0025 57° Northeast 523 602 31,000 1,980 Climbing Oakland Center
12:41PM 38.1933 -120.8450 57° Northeast 531 611 32,800 1,680 Climbing Oakland Center
12:42PM 38.2733 -120.6861 57° Northeast 538 619 34,500 1,620 Climbing Oakland Center
12:43PM 38.3550 -120.5267 57° Northeast 541 623 36,200 1,620 Climbing Oakland Center
12:44PM 38.4353 -120.3653 58° Northeast 541 623 37,900 1,680 Climbing Oakland Center
12:45PM 38.5333 -120.2289 47° Northeast 526 605 39,700 1,500 Climbing Oakland Center
12:46PM 38.6397 -120.1067 42° Northeast 517 595 41,000 600 Climbing Oakland Center
12:47PM 38.7486 -119.9881 40° Northeast 515 593 41,000  Level Oakland Center
12:48PM 38.8739 -119.8344 44° Northeast 525 604 41,000  Level Oakland Center
12:49PM 38.9431 -119.6831 60° Northeast 532 612 41,000 480 Level Oakland Center
12:50PM 39.0161 -119.5219 60° Northeast 523 602 42,100 900 Climbing Oakland Center
12:51PM 39.0864 -119.3642 60° Northeast 511 588 42,900 420 Climbing Oakland Center
12:52PM 39.1586 -119.2033 60° Northeast 517 595 43,000  Climbing Oakland Center
12:53PM 39.2458 -119.0092 60° Northeast 530 610 43,000  Level Oakland Center
12:54PM 39.3197 -118.8431 60° Northeast 531 611 43,000  Level Oakland Center
12:55PM 39.3928 -118.6756 61° Northeast 533 613 43,000  Level Oakland Center
12:56PM 39.4689 -118.5039 60° Northeast 536 617 43,000  Level Oakland Center
12:57PM 39.5347 -118.3547 60° Northeast 534 615 43,000  Level Oakland Center
12:58PM 39.6081 -118.1850 61° Northeast 540 621 43,000  Level Oakland Center
12:59PM 39.6964 -117.9800 61° Northeast 543 625 43,000  Level Oakland Center
01:00PM 39.7692 -117.8111 61° Northeast 538 619 43,000  Level Oakland Center
01:01PM 39.8431 -117.6378 61° Northeast 538 619 43,000  Level Oakland Center
01:02PM 39.9108 -117.4747 62° Northeast 536 617 43,000  Level Oakland Center
01:03PM 39.9619 -117.3017 69° East 536 617 43,000  Level Oakland Center
01:04PM 40.0058 -117.0942 75° East 534 615 43,000  Level Oakland Center
01:05PM 40.0431 -116.9150 75° East 538 619 43,000  Level Oakland Center
01:06PM 40.0861 -116.7092 75° East 533 613 43,000  Level Oakland Center
01:07PM 40.1225 -116.5331 75° East 531 611 43,000  Level Oakland Center
01:09PM 40.1719 -116.2953 75° East 532 612 43,000  Level Salt Lake Center
01:10PM 40.2086 -116.1178 75° East 530 610 43,000  Level Salt Lake Center
01:11PM 40.2486 -115.9133 76° East 523 602 43,000  Level Salt Lake Center
01:12PM 40.2850 -115.7400 75° East 517 595 43,000  Level Salt Lake Center
01:13PM 40.3278 -115.5344 75° East 524 603 43,000  Level Salt Lake Center
01:14PM 40.3628 -115.3567 75° East 526 605 43,000  Level Salt Lake Center
01:15PM 40.3964 -115.1808 76° East 523 602 43,000  Level Salt Lake Center
01:16PM 40.4364 -114.9758 76° East 519 597 43,000  Level Salt Lake Center
01:17PM 40.4697 -114.7994 76° East 520 598 43,000  Level Salt Lake Center
01:18PM 40.5050 -114.6175 76° East 522 601 43,000  Level Salt Lake Center
01:19PM 40.5453 -114.3922 77° East 529 609 43,000  Level Salt Lake Center
01:20PM 40.5808 -114.2069 76° East 525 604 43,000  Level Salt Lake Center
01:21PM 40.6150 -114.0214 76° East 524 603 43,000  Level Salt Lake Center
01:22PM 40.6481 -113.8367 77° East 521 600 43,000  Level Salt Lake Center
01:23PM 40.6814 -113.6508 77° East 523 602 43,000  Level Salt Lake Center
01:24PM 40.7153 -113.4633 77° East 526 605 43,000  Level Salt Lake Center
01:25PM 40.7486 -113.2792 77° East 521 600 43,000  Level Salt Lake Center
01:26PM 40.7803 -113.0933 77° East 519 597 43,000  Level Salt Lake Center
01:27PM 40.8186 -112.8711 77° East 519 597 43,000  Level Salt Lake Center
01:28PM 40.8500 -112.6864 77° East 518 596 43,000  Level Salt Lake Center
01:29PM 40.8814 -112.5014 77° East 518 596 43,000  Level Salt Lake Center
01:30PM 40.9125 -112.3161 77° East 517 595 43,000  Level Salt Lake Center
01:31PM 40.9431 -112.1328 78° East 515 593 43,000  Level Salt Lake Center
01:32PM 40.9731 -111.9492 78° East 516 594 43,000  Level Salt Lake Center
01:33PM 41.0083 -111.7342 78° East 519 597 43,000  Level Salt Lake Center
01:34PM 41.0367 -111.5567 78° East 517 595 43,000  Level Salt Lake Center
01:35PM 41.0661 -111.3711 78° East 515 593 43,000  Level Salt Lake Center
01:36PM 41.0944 -111.1883 78° East 508 585 43,000  Level Salt Lake Center
01:37PM 41.1228 -111.0044 78° East 510 587 43,000  Level Salt Lake Center
01:38PM 41.1564 -110.7792 79° East 516 594 43,000  Level Salt Lake Center
01:39PM 41.1836 -110.6000 79° East 518 596 43,000  Level Salt Lake Center
01:40PM 41.2114 -110.4217 78° East 516 594 43,000  Level Salt Lake Center
01:41PM 41.2408 -110.2167 79° East 509 586 43,000  Level Salt Lake Center
01:43PM 41.2669 -110.0400 79° East 509 586 43,100  Climbing Salt Lake Center
01:44PM 41.2964 -109.8336 79° East 511 588 43,100 -60 Level Salt Lake Center
01:45PM 41.3214 -109.6564 79° East 510 587 43,000 -60 Descending Salt Lake Center
01:46PM 41.3508 -109.4497 79° East 510 587 43,000  Level Salt Lake Center
01:47PM 41.3750 -109.2728 80° East 511 588 43,000  Level Salt Lake Center
01:48PM 41.4025 -109.0828 79° East 503 579 43,000  Level Salt Lake Center
01:49PM 41.4308 -108.8708 80° East 515 593 43,000  Level Salt Lake Center
01:50PM 41.4547 -108.6925 80° East 515 593 43,000  Level Salt Lake Center
01:51PM 41.4819 -108.4847 80° East 511 588 43,000  Level Salt Lake Center
01:52PM 41.5058 -108.3033 80° East 518 596 43,000  Level Salt Lake Center
01:53PM 41.5333 -108.0894 80° East 522 601 43,000  Level Denver Center
01:54PM 41.5553 -107.9078 81° East 520 598 43,000 360 Level Denver Center
01:55PM 41.5822 -107.6981 80° East 516 594 43,800 780 Climbing Denver Center
01:56PM 41.6042 -107.5214 81° East 506 582 44,700 540 Climbing Denver Center
01:57PM 41.6278 -107.3183 81° East 497 572 45,000 120 Climbing Denver Center
01:58PM 41.6497 -107.1442 80° East 499 574 45,000  Level Denver Center
01:59PM 41.6731 -106.9392 81° East 500 575 45,000  Level Denver Center
02:00PM 41.6972 -106.7344 81° East 501 577 45,000  Level Denver Center
02:01PM 41.7203 -106.5269 81° East 504 580 45,000  Level Denver Center
02:02PM 41.7414 -106.3372 81° East 509 586 45,000  Level Denver Center
02:03PM 41.7614 -106.1600 81° East 505 581 45,000  Level Denver Center
02:04PM 41.7831 -105.9511 82° East 508 585 45,000  Level Denver Center
02:06PM 41.8011 -105.7722 82° East 510 587 45,000  Level Denver Center
02:07PM 41.8267 -105.5625 81° East 513 590 45,000  Level Denver Center
02:08PM 41.8422 -105.3803 83° East 515 593 45,000  Level Denver Center
02:09PM 41.8650 -105.1708 82° East 513 590 45,000  Level Denver Center
02:10PM 41.8828 -104.9914 82° East 510 587 45,000  Level Denver Center
02:11PM 41.9036 -104.7819 82° East 509 586 45,000  Level Denver Center
02:12PM 41.9206 -104.6028 83° East 509 586 45,000  Level Denver Center
02:13PM 41.9411 -104.3944 82° East 508 585 45,000  Level Denver Center
02:14PM 41.9581 -104.2147 83° East 509 586 45,000  Level Denver Center
02:15PM 41.9769 -104.0050 83° East 510 587 45,000  Level Denver Center
02:16PM 41.9911 -103.8256 84° East 508 585 45,000  Level Denver Center
02:17PM 42.0106 -103.6136 83° East 511 588 45,000  Level Denver Center
02:18PM 42.0261 -103.4308 83° East 515 593 45,000  Level Denver Center
02:19PM 42.0456 -103.2183 83° East 514 592 45,000  Level Denver Center
02:20PM 42.0606 -103.0347 84° East 516 594 45,000  Level Denver Center
02:21PM 42.0772 -102.8219 84° East 515 593 45,000  Level Denver Center
02:22PM 42.0928 -102.6383 83° East 515 593 45,000  Level Denver Center
02:23PM 42.1092 -102.4239 84° East 516 594 45,000  Level Denver Center
02:24PM 42.1231 -102.2397 84° East 517 595 45,000  Level Denver Center
02:25PM 42.1375 -102.0389 84° East 517 595 45,000  Level Denver Center
02:26PM 42.1539 -101.8233 84° East 518 596 45,000  Level Denver Center
02:27PM 42.1667 -101.6381 85° East 518 596 45,000  Level Denver Center
02:28PM 42.1789 -101.4528 85° East 517 595 45,000  Level Denver Center
02:29PM 42.1933 -101.2356 85° East 520 598 45,000  Level Denver Center
02:30PM 42.2061 -101.0514 85° East 516 594 45,000  Level Denver Center
02:31PM 42.2194 -100.8356 85° East 517 595 45,000  Level Denver Center
02:32PM 42.2303 -100.6519 85° East 515 593 45,000  Level Denver Center
02:33PM 42.2433 -100.4381 85° East 513 590 45,000  Level Denver Center
02:34PM 42.2536 -100.2539 86° East 512 589 45,000  Level Denver Center
02:35PM 42.2661 -100.0411 85° East 512 589 45,000  Level Denver Center
02:37PM 42.2753 -99.8556 86° East 516 594 45,000  Level Denver Center
02:38PM 42.2867 -99.6597 85° East 508 585 45,000  Level Denver Center
02:39PM 42.2964 -99.4678 86° East 509 586 45,000  Level Denver Center
02:40PM 42.3053 -99.2764 86° East 509 586 45,000  Level Denver Center
02:40PM 42.3097 -99.2006 85° East 510 587 45,000  Level Minneapolis Center
02:41PM 42.3189 -99.0064 86° East 513 590 45,000  Level Minneapolis Center
02:42PM 42.3281 -98.8128 86° East 514 592 45,000  Level Minneapolis Center
02:43PM 42.3372 -98.5847 87° East 510 587 45,000  Level Minneapolis Center
02:44PM 42.3458 -98.3928 86° East 510 587 45,000  Level Minneapolis Center
02:45PM 42.3550 -98.1619 87° East 510 587 45,000  Level Minneapolis Center
02:46PM 42.3619 -97.9667 87° East 516 594 45,000  Level Minneapolis Center
02:47PM 42.3681 -97.7817 87° East 506 582 45,000  Level Minneapolis Center
02:48PM 42.3753 -97.5931 87° East 502 578 45,000  Level Minneapolis Center
02:49PM 42.3808 -97.4028 88° East 503 579 45,000  Level Minneapolis Center
02:51PM 42.3881 -97.2119 87° East 505 581 45,000  Level Minneapolis Center
02:52PM 42.3944 -96.9822 88° East 509 586 45,000  Level Minneapolis Center
02:53PM 42.3997 -96.7914 88° East 508 585 45,000  Level Minneapolis Center
02:54PM 42.4056 -96.5994 88° East 508 585 45,000  Level Minneapolis Center
02:55PM 42.4097 -96.4089 88° East 507 583 45,000  Level Minneapolis Center
02:56PM 42.4136 -96.2153 88° East 511 588 45,000  Level Minneapolis Center
02:57PM 42.4164 -96.0603 89° East 512 589 45,000  Level Minneapolis Center
02:58PM 42.4208 -95.8264 88° East 514 592 45,000  Level Minneapolis Center
02:59PM 42.4253 -95.5931 88° East 517 595 45,000  Level Minneapolis Center
03:00PM 42.4278 -95.3989 89° East 515 593 45,000  Level Minneapolis Center
03:01PM 42.4303 -95.2044 89° East 515 593 45,000  Level Minneapolis Center
03:02PM 42.4336 -95.0089 89° East 518 596 45,000  Level Minneapolis Center
03:03PM 42.4344 -94.8139 90° East 517 595 45,000  Level Minneapolis Center
03:04PM 42.4369 -94.6181 89° East 518 596 45,000  Level Minneapolis Center
03:05PM 42.4367 -94.4219 90° East 520 598 45,000  Level Minneapolis Center
03:06PM 42.4378 -94.2194 90° East 518 596 45,000  Level Minneapolis Center
03:07PM 42.4392 -94.0275 89° East 517 595 45,000  Level Minneapolis Center
03:08PM 42.4394 -93.7961 90° East 517 595 45,000  Level Minneapolis Center
03:09PM 42.4397 -93.6019 90° East 519 597 45,000  Level Minneapolis Center
03:10PM 42.4394 -93.4083 90° East 521 600 45,000  Level Minneapolis Center
03:11PM 42.4389 -93.2156 90° East 519 597 45,000  Level Minneapolis Center
03:12PM 42.4375 -92.9861 90° East 517 595 45,000  Level Minneapolis Center
03:13PM 42.4367 -92.8308 90° East 519 597 45,000  Level Minneapolis Center
03:14PM 42.4350 -92.5983 90° East 522 601 45,000  Level Minneapolis Center
03:15PM 42.4333 -92.4042 91° East 522 601 45,000  Level Minneapolis Center
03:16PM 42.4303 -92.2106 91° East 521 600 45,000  Level Minneapolis Center
03:17PM 42.4292 -92.0933 91° East 522 601 45,000  Level Chicago Center
03:18PM 42.4269 -91.8997 91° East 524 603 45,000  Level Chicago Center
03:19PM 42.4225 -91.7075 92° East 523 602 45,000  Level Chicago Center
03:20PM 42.4186 -91.4769 91° East 523 602 45,000  Level Chicago Center
03:21PM 42.4147 -91.2864 92° East 517 595 45,000  Level Chicago Center
03:22PM 42.4097 -91.0950 92° East 518 596 45,000  Level Chicago Center
03:23PM 42.4053 -90.9022 92° East 519 597 45,000  Level Chicago Center
03:24PM 42.3975 -90.6708 93° East 521 600 45,000  Level Chicago Center
03:25PM 42.3881 -90.4786 94° East 519 597 45,000  Level Chicago Center
03:26PM 42.3767 -90.2853 94° East 520 598 45,000  Level Chicago Center
03:27PM 42.3661 -90.0928 94° East 519 597 45,000  Level Chicago Center
03:28PM 42.3542 -89.8797 94° East 522 601 45,000  Level Chicago Center
03:29PM 42.3419 -89.6850 95° East 521 600 45,000  Level Chicago Center
03:30PM 42.3278 -89.4581 95° East 520 598 45,000  Level Chicago Center
03:31PM 42.3158 -89.2625 95° East 522 601 45,000  Level Chicago Center
03:32PM 42.3028 -89.0683 95° East 521 600 45,000  Level Chicago Center
03:33PM 42.2892 -88.8742 95° East 521 600 45,000  Level Chicago Center
03:34PM 42.2750 -88.6617 95° East 519 597 45,000  Level Chicago Center
03:35PM 42.2611 -88.4669 95° East 520 598 45,000  Level Chicago Center
03:37PM 42.2456 -88.2711 96° East 524 603 45,000  Level Chicago Center
03:38PM 42.2314 -88.0783 96° East 520 598 45,000  Level Chicago Center
03:39PM 42.2169 -87.8833 96° East 522 601 45,000  Level Chicago Center
03:40PM 42.2047 -87.6517 94° East 518 596 45,000  Level Chicago Center
03:41PM 42.1944 -87.4569 94° East 520 598 45,000  Level Chicago Center
03:42PM 42.1842 -87.2622 94° East 522 601 45,000  Level Chicago Center
03:43PM 42.1728 -87.0675 94° East 521 600 45,000  Level Chicago Center
03:44PM 42.1597 -86.8711 95° East 527 606 45,000  Level Chicago Center
03:45PM 42.1472 -86.6592 94° East 523 602 45,000  Level Chicago Center
03:46PM 42.1353 -86.4636 95° East 523 602 45,000  Level Chicago Center
03:47PM 42.1222 -86.2692 95° East 522 601 45,000  Level Chicago Center
03:48PM 42.1094 -86.0719 95° East 526 605 45,000  Level Chicago Center
03:49PM 42.0933 -85.8539 96° East 525 604 45,000  Level Chicago Center
03:50PM 42.0808 -85.6586 95° East 525 604 45,000  Level Chicago Center
03:51PM 42.0667 -85.4631 96° East 529 609 45,000  Level Chicago Center
03:52PM 42.0556 -85.2792 95° East 539 620 45,000  Level Cleveland Center
03:53PM 42.0425 -85.0853 95° East 534 615 45,000  Level Cleveland Center
03:54PM 42.0419 -84.8839 90° East 534 615 45,000  Level Cleveland Center
03:55PM 42.0447 -84.6911 89° East 528 608 45,000  Level Cleveland Center
03:56PM 42.0456 -84.4925 90° East 523 602 45,000  Level Cleveland Center
03:57PM 42.0422 -84.2797 91° East 523 602 45,000  Level Cleveland Center
03:58PM 42.0439 -84.0869 89° East 518 596 45,000  Level Cleveland Center
03:59PM 42.0436 -83.8911 90° East 518 596 45,000  Level Cleveland Center
04:00PM 42.0447 -83.6981 89° East 518 596 45,000  Level Cleveland Center
04:01PM 42.0472 -83.5306 89° East 507 583 45,000  Level Cleveland Center
04:02PM 42.0542 -83.3378 87° East 507 583 45,000  Level Cleveland Center
04:03PM 42.0611 -83.1256 87° East 512 589 45,000  Level Cleveland Center
04:04PM 42.0714 -82.9356 86° East 512 589 45,000  Level Cleveland Center
04:05PM 42.0792 -82.7456 87° East 512 589 45,000  Level Cleveland Center
04:06PM 42.0911 -82.5558 85° East 506 582 45,000  Level Cleveland Center
04:07PM 42.1067 -82.3603 84° East 513 590 45,000  Level Cleveland Center
04:08PM 42.1053 -82.1672 90° East 513 590 45,000  Level Cleveland Center
04:09PM 42.1119 -81.9828 87° East 507 583 45,000  Level Cleveland Center
04:10PM 42.1203 -81.7869 87° East 507 583 45,000  Level Cleveland Center
04:11PM 42.1264 -81.5967 87° East 512 589 45,000  Level Cleveland Center
04:12PM 42.1342 -81.4231 86° East 512 589 45,000  Level Cleveland Center
04:13PM 42.1417 -81.2300 87° East 512 589 45,000  Level Cleveland Center
04:14PM 42.1444 -81.0397 89° East 512 589 45,000  Level Cleveland Center
04:15PM 42.1514 -80.8464 87° East 517 595 45,000  Level Cleveland Center
04:16PM 42.1581 -80.6561 87° East 508 585 45,000  Level Cleveland Center
04:17PM 42.1619 -80.4486 88° East 503 579 45,000  Level Cleveland Center
04:18PM 42.1681 -80.2583 87° East 509 586 45,000  Level Cleveland Center
04:19PM 42.1714 -80.0650 89° East 509 586 45,000  Level Cleveland Center
04:20PM 42.1767 -79.8800 88° East 509 586 45,000  Level Cleveland Center
04:21PM 42.1797 -79.6978 89° East 498 573 45,000  Level Cleveland Center
04:22PM 42.1825 -79.5353 89° East 488 562 45,000  Level Cleveland Center
04:23PM 42.1869 -79.3531 88° East 483 556 45,000  Level Cleveland Center
04:24PM 42.1869 -79.1681 90° East 478 550 45,000 -420 Level Cleveland Center
04:25PM 42.1553 -78.9894 103° East 478 550 44,200 -1,200 Descending Cleveland Center
04:26PM 42.1131 -78.8114 108° East 483 556 42,700 -1,500 Descending Cleveland Center
04:27PM 42.0686 -78.6392 109° East 489 563 41,200 -1,500 Descending Cleveland Center
04:28PM 42.0217 -78.4617 110° East 500 575 39,800 -1,920 Descending Cleveland Center
04:29PM 41.9767 -78.2817 109° East 500 575 37,400 -1,800 Descending Cleveland Center
04:31PM 41.8964 -77.9797 110° East 506 582 35,000 -900 Descending New York Center
04:32PM 41.8506 -77.8019 109° East 506 582 35,000  Level New York Center
04:33PM 41.8047 -77.6272 109° East 506 582 35,000  Level New York Center
04:34PM 41.7586 -77.4472 109° East 506 582 35,000 -720 Level New York Center
04:35PM 41.7100 -77.2731 110° East 506 582 33,600 -1,800 Descending New York Center
04:36PM 41.6631 -77.0989 110° East 506 582 31,500 -2,160 Descending New York Center
04:37PM 41.6144 -76.9167 110° East 511 588 29,300 -2,220 Descending New York Center
04:38PM 41.5653 -76.7375 110° East 511 588 27,100 -2,340 Descending New York Center
04:39PM 41.5142 -76.5503 110° East 502 578 24,600 -1,560 Descending New York Center
04:40PM 41.4681 -76.3828 110° East 490 564 24,000 -1,200 Descending New York Center
04:41PM 41.4236 -76.2158 109° East 479 551 22,200 -1,980 Descending New York Center
04:42PM 41.3767 -76.0572 111° Southeast 474 545 20,200 -1,680 Descending New York Center
04:43PM 41.3314 -75.9017 111° Southeast 463 533 19,000 -600 Descending New York Center
04:44PM 41.2881 -75.7492 111° Southeast 452 520 19,000 -780 Level New York Center
04:45PM 41.2422 -75.5969 112° Southeast 445 512 17,500 -1,680 Descending New York Center
04:46PM 41.1975 -75.4642 114° Southeast 440 506 15,700 -2,220 Descending New York Center
04:47PM 41.1508 -75.3258 114° Southeast 420 483 13,200 -2,220 Descending New York Center
04:48PM 41.1706 -75.1919 79° East 349 402 11,300 -1,980 Descending New York Center
04:49PM 41.1533 -75.0917 103° East 282 325 9,300 -1,920 Descending New York Center
04:50PM 41.0911 -75.0272 142° Southeast 264 304 7,400 -1,740 Descending New York Center
04:51PM 41.0269 -74.9572 141° Southeast 281 323 5,900 -1,320 Descending New York Center
04:52PM 40.9972 -74.8536 111° Southeast 287 330 4,800 -1,440 Descending New York Center
04:53PM 40.9794 -74.7647 105° East 287 330 3,000 -900 Descending New York Center
04:54PM 40.9539 -74.6614 108° East 282 325 3,000  Level New York Center
04:55PM 40.9356 -74.5808 107° East 261 300 3,000  Level New York Center
04:56PM 40.9156 -74.4864 106° East 250 288 3,000 -240 Level New York Center
04:57PM 40.8972 -74.4111 108° East 240 276 2,600 -840 Descending New York Center
04:58PM 40.8528 -74.3678 144° Southeast 193 222 1,400 -1,140 Descending New York Center
04:58PM 40.8333 -74.3833 211° Southwest 166 191 1,100 2,280 Descending New York TRACON
05:00PM 40.7806 -74.3447 151° Southeast 174 200 6,000 1,800 Climbing New York Center
05:01PM 40.7436 -74.3208 154° Southeast 174 200 6,000  Level New York Center
05:02PM 40.7089 -74.2997 155° Southeast 174 200 6,000  Level New York Center
05:03PM 40.6864 -74.2850 154° Southeast 174 200 6,000  Level New York Center